createdAt,value
2022-11-08T00:00:03.388Z,10.17
2022-11-08T00:02:33.489Z,10.16
2022-11-08T00:05:18.927Z,10.20
2022-11-08T00:08:05.820Z,10.15
2022-11-08T00:10:51.632Z,10.16
2022-11-08T00:13:36.772Z,10.14
2022-11-08T00:16:04.796Z,10.09
2022-11-08T00:18:32.835Z,10.15
2022-11-08T00:21:03.244Z,10.14
2022-11-08T00:23:32.596Z,10.18
2022-11-08T00:26:00.529Z,10.17
2022-11-08T00:28:28.468Z,10.15
2022-11-08T00:30:56.538Z,10.08
2022-11-08T00:33:24.541Z,10.07
2022-11-08T00:35:52.459Z,10.11
2022-11-08T00:38:20.728Z,10.08
2022-11-08T00:40:51.733Z,10.04
2022-11-08T00:43:19.728Z,10.03
2022-11-08T00:45:47.665Z,10.06
2022-11-08T00:48:16.005Z,10.11
2022-11-08T00:50:44.101Z,10.09
2022-11-08T00:53:31.652Z,10.07
2022-11-08T00:56:01.948Z,10.04
2022-11-08T00:58:30.156Z,10.03
2022-11-08T01:00:58.820Z,10.08
2022-11-08T01:03:28.715Z,10.08
2022-11-08T01:05:56.816Z,10.09
2022-11-08T01:08:25.152Z,10.08
2022-11-08T01:10:53.433Z,10.05
2022-11-08T01:13:27.557Z,10.10
2022-11-08T01:15:56.493Z,10.04
2022-11-08T01:18:25.162Z,10.04
2022-11-08T01:20:53.053Z,10.08
2022-11-08T01:23:22.138Z,10.10
2022-11-08T01:25:49.969Z,10.06
2022-11-08T01:28:18.570Z,10.08
2022-11-08T01:30:49.126Z,10.10
2022-11-08T01:33:17.098Z,10.07
2022-11-08T01:35:46.316Z,10.11
2022-11-08T01:38:14.508Z,10.03
2022-11-08T01:40:46.855Z,10.06
2022-11-08T01:43:38.519Z,10.04
2022-11-08T01:46:30.998Z,10.00
2022-11-08T01:49:05.431Z,9.99
2022-11-08T01:51:38.208Z,10.02
2022-11-08T01:54:11.098Z,10.06
2022-11-08T01:56:41.945Z,10.06
2022-11-08T01:59:13.003Z,10.09
2022-11-08T02:01:43.035Z,10.08
2022-11-08T02:04:11.790Z,10.10
2022-11-08T02:06:40.675Z,10.11
2022-11-08T02:09:11.850Z,10.10
2022-11-08T02:11:40.897Z,10.14
2022-11-08T02:14:09.242Z,10.14
2022-11-08T02:16:37.294Z,10.14
2022-11-08T02:19:10.279Z,10.19
2022-11-08T02:21:48.177Z,10.16
2022-11-08T02:24:18.206Z,10.19
2022-11-08T02:26:47.932Z,10.19
2022-11-08T02:29:28.021Z,10.20
2022-11-08T02:31:56.607Z,10.19
2022-11-08T02:34:28.507Z,10.22
2022-11-08T02:36:57.568Z,10.22
2022-11-08T02:39:26.698Z,10.26
2022-11-08T02:41:54.421Z,10.25
2022-11-08T02:44:22.411Z,10.24
2022-11-08T02:46:50.298Z,10.27
2022-11-08T02:49:18.276Z,10.27
2022-11-08T02:51:46.210Z,10.27
2022-11-08T02:54:14.203Z,10.28
2022-11-08T02:56:43.580Z,10.20
2022-11-08T02:59:11.520Z,10.22
2022-11-08T03:01:39.656Z,10.18
2022-11-08T03:04:07.777Z,10.21
2022-11-08T03:06:35.775Z,10.25
2022-11-08T03:09:03.794Z,10.24
2022-11-08T03:11:31.745Z,10.28
2022-11-08T03:14:01.333Z,10.30
2022-11-08T03:16:29.298Z,10.26
2022-11-08T03:18:57.318Z,10.34
2022-11-08T03:21:25.423Z,10.35
2022-11-08T03:23:53.497Z,10.33
2022-11-08T03:26:21.468Z,10.34
2022-11-08T03:28:49.508Z,10.37
2022-11-08T03:31:18.828Z,10.37
2022-11-08T03:33:46.817Z,10.38
2022-11-08T03:36:14.757Z,10.42
2022-11-08T03:38:42.700Z,10.42
2022-11-08T03:41:10.663Z,10.41
2022-11-08T03:43:38.684Z,10.43
2022-11-08T03:46:06.811Z,10.44
2022-11-08T03:48:36.188Z,10.44
2022-11-08T03:51:04.094Z,10.48
2022-11-08T03:53:32.021Z,10.48
2022-11-08T03:56:00.375Z,10.49
2022-11-08T03:58:28.456Z,10.47
2022-11-08T04:00:58.222Z,10.50
2022-11-08T04:03:26.381Z,10.48
2022-11-08T04:05:56.489Z,10.53
2022-11-08T04:08:24.460Z,10.51
2022-11-08T04:10:55.581Z,10.45
2022-11-08T04:13:41.399Z,10.46
2022-11-08T04:16:13.898Z,10.44
2022-11-08T04:19:01.929Z,10.46
2022-11-08T04:21:31.317Z,10.48
2022-11-08T04:23:59.260Z,10.48
2022-11-08T04:26:27.196Z,10.47
2022-11-08T04:28:55.119Z,10.49
2022-11-08T04:31:23.088Z,10.50
2022-11-08T04:33:51.018Z,10.51
2022-11-08T04:36:19.087Z,10.51
2022-11-08T04:38:50.856Z,10.56
2022-11-08T04:41:20.231Z,10.58
2022-11-08T04:43:48.527Z,10.61
2022-11-08T04:46:18.317Z,10.60
2022-11-08T04:48:47.068Z,10.59
2022-11-08T04:51:17.139Z,10.55
2022-11-08T04:53:45.328Z,10.55
2022-11-08T04:56:19.519Z,10.56
2022-11-08T04:58:49.003Z,10.60
2022-11-08T05:01:19.072Z,10.56
2022-11-08T05:03:48.813Z,10.55
2022-11-08T05:06:18.262Z,10.62
2022-11-08T05:08:46.503Z,10.64
2022-11-08T05:11:18.011Z,10.64
2022-11-08T05:13:46.260Z,10.61
2022-11-08T05:16:16.088Z,10.64
2022-11-08T05:18:44.067Z,10.62
2022-11-08T05:21:31.530Z,10.64
2022-11-08T05:24:00.615Z,10.65
2022-11-08T05:26:30.119Z,10.67
2022-11-08T05:28:58.252Z,10.70
2022-11-08T05:31:26.376Z,10.70
2022-11-08T05:33:54.378Z,10.72
2022-11-08T05:36:22.611Z,10.70
2022-11-08T05:38:50.542Z,10.69
2022-11-08T05:41:22.198Z,10.69
2022-11-08T05:43:53.720Z,10.67
2022-11-08T05:46:22.982Z,10.67
2022-11-08T05:48:51.779Z,10.69
2022-11-08T05:51:20.476Z,10.69
2022-11-08T05:53:48.864Z,10.67
2022-11-08T05:56:17.756Z,10.68
2022-11-08T05:58:46.560Z,10.71
2022-11-08T06:01:17.740Z,10.76
2022-11-08T06:03:46.647Z,10.79
2022-11-08T06:06:16.486Z,10.80
2022-11-08T06:08:48.904Z,10.81
2022-11-08T06:11:21.478Z,10.84
2022-11-08T06:13:49.598Z,10.82
2022-11-08T06:16:20.291Z,10.88
2022-11-08T06:18:48.328Z,10.85
2022-11-08T06:21:17.702Z,10.83
2022-11-08T06:23:46.075Z,10.87
2022-11-08T06:26:14.589Z,10.92
2022-11-08T06:28:42.681Z,10.95
2022-11-08T06:31:10.669Z,10.91
2022-11-08T06:33:39.964Z,10.92
2022-11-08T06:36:09.129Z,10.87
2022-11-08T06:38:37.049Z,10.97
2022-11-08T06:41:05.114Z,10.96
2022-11-08T06:43:33.134Z,10.94
2022-11-08T06:46:02.309Z,10.98
2022-11-08T06:48:35.425Z,11.00
2022-11-08T06:51:05.856Z,11.02
2022-11-08T06:53:34.627Z,11.03
2022-11-08T06:56:03.397Z,11.00
2022-11-08T06:58:32.043Z,11.12
2022-11-08T07:01:03.587Z,11.08
2022-11-08T07:03:31.757Z,11.07
2022-11-08T07:06:01.801Z,11.05
2022-11-08T07:08:31.449Z,11.02
2022-11-08T07:10:59.524Z,11.07
2022-11-08T07:13:27.483Z,11.14
2022-11-08T07:16:00.648Z,11.16
2022-11-08T07:18:29.996Z,11.23
2022-11-08T07:21:02.099Z,11.34
2022-11-08T07:23:31.908Z,11.29
2022-11-08T07:26:03.041Z,11.29
2022-11-08T07:28:31.812Z,11.33
2022-11-08T07:31:01.577Z,11.38
2022-11-08T07:33:30.004Z,11.44
2022-11-08T07:35:58.234Z,11.48
2022-11-08T07:38:26.482Z,11.48
2022-11-08T07:40:59.106Z,11.47
2022-11-08T07:43:28.643Z,11.56
2022-11-08T07:46:02.414Z,11.98
2022-11-08T07:48:31.949Z,12.24
2022-11-08T07:50:59.968Z,12.68
2022-11-08T07:53:28.048Z,12.94
2022-11-08T07:55:58.369Z,12.77
2022-11-08T07:58:26.756Z,12.93
2022-11-08T08:00:54.685Z,13.14
2022-11-08T08:03:23.333Z,13.11
2022-11-08T08:05:59.590Z,13.43
2022-11-08T08:08:28.829Z,13.50
2022-11-08T08:11:00.489Z,14.13
2022-11-08T08:13:28.783Z,14.36
2022-11-08T08:15:59.960Z,14.87
2022-11-08T08:18:27.985Z,15.03
2022-11-08T08:20:56.002Z,15.06
2022-11-08T08:23:23.954Z,15.46
2022-11-08T08:25:52.876Z,15.79
2022-11-08T08:28:22.316Z,15.84
2022-11-08T08:30:50.330Z,15.58
2022-11-08T08:33:34.812Z,15.09
2022-11-08T08:36:02.903Z,14.85
2022-11-08T08:38:31.330Z,14.70
2022-11-08T08:40:59.737Z,14.70
2022-11-08T08:43:29.674Z,14.47
2022-11-08T08:46:00.705Z,14.32
2022-11-08T08:48:28.881Z,14.04
2022-11-08T08:50:56.853Z,13.96
2022-11-08T08:53:25.222Z,13.81
2022-11-08T08:55:53.417Z,13.67
2022-11-08T08:58:22.522Z,13.60
2022-11-08T09:03:39.998Z,13.76
2022-11-08T09:06:08.125Z,13.74
2022-11-08T09:08:36.411Z,13.80
2022-11-08T09:11:04.408Z,13.98
2022-11-08T09:13:33.135Z,13.95
2022-11-08T09:16:03.700Z,13.75
2022-11-08T09:18:32.788Z,13.72
2022-11-08T09:21:01.101Z,13.70
2022-11-08T09:23:29.314Z,13.65
2022-11-08T09:25:58.601Z,13.43
2022-11-08T09:28:30.959Z,13.32
2022-11-08T09:31:03.809Z,13.31
2022-11-08T09:33:32.193Z,13.38
2022-11-08T09:36:00.683Z,13.29
2022-11-08T09:38:28.721Z,13.39
2022-11-08T09:41:15.047Z,13.33
2022-11-08T09:44:00.883Z,13.54
2022-11-08T09:46:40.162Z,13.64
2022-11-08T09:49:14.341Z,13.70
2022-11-08T09:51:43.231Z,13.62
2022-11-08T09:54:19.831Z,13.58
2022-11-08T09:56:48.991Z,13.45
2022-11-08T09:59:31.521Z,13.30
2022-11-08T10:02:00.963Z,13.07
2022-11-08T10:04:33.194Z,13.01
2022-11-08T10:07:16.413Z,13.10
2022-11-08T10:10:17.741Z,12.94
2022-11-08T10:12:50.983Z,13.01
2022-11-08T10:15:27.218Z,12.99
2022-11-08T10:18:29.807Z,12.91
2022-11-08T10:21:04.147Z,12.91
2022-11-08T10:23:43.211Z,12.79
2022-11-08T10:26:18.035Z,12.85
2022-11-08T10:28:51.751Z,12.90
2022-11-08T10:31:21.668Z,13.07
2022-11-08T10:33:53.374Z,13.11
2022-11-08T10:36:27.304Z,13.26
2022-11-08T10:39:03.247Z,13.40
2022-11-08T10:41:39.448Z,13.34
2022-11-08T10:44:13.835Z,13.28
2022-11-08T10:46:45.275Z,13.43
2022-11-08T10:49:18.939Z,13.45
2022-11-08T10:51:48.380Z,13.39
2022-11-08T10:54:45.149Z,13.46
2022-11-08T10:57:15.411Z,13.55
2022-11-08T10:59:44.256Z,13.59
2022-11-08T11:02:25.198Z,13.68
2022-11-08T11:05:14.131Z,13.88
2022-11-08T11:07:42.718Z,14.22
2022-11-08T11:10:23.563Z,14.85
2022-11-08T11:12:53.148Z,14.71
2022-11-08T11:15:21.119Z,14.54
2022-11-08T11:17:49.032Z,14.66
2022-11-08T11:20:24.347Z,15.03
2022-11-08T11:22:54.304Z,15.44
2022-11-08T11:25:25.101Z,15.93
2022-11-08T11:27:57.686Z,16.57
2022-11-08T11:30:30.566Z,17.59
2022-11-08T11:33:05.724Z,18.25
2022-11-08T11:35:42.252Z,18.66
2022-11-08T11:38:20.393Z,18.65
2022-11-08T11:40:50.336Z,19.56
2022-11-08T11:43:26.472Z,20.17
2022-11-08T11:45:59.377Z,19.86
2022-11-08T11:48:30.030Z,20.44
2022-11-08T11:50:59.691Z,20.74
2022-11-08T11:53:32.952Z,20.99
2022-11-08T11:56:19.673Z,21.45
2022-11-08T11:59:03.202Z,21.37
2022-11-08T12:01:50.181Z,21.41
2022-11-08T12:04:43.610Z,21.45
2022-11-08T12:07:20.335Z,20.95
2022-11-08T12:10:00.928Z,20.42
2022-11-08T12:12:46.497Z,19.91
2022-11-08T12:15:23.870Z,19.25
2022-11-08T12:18:41.075Z,18.83
2022-11-08T12:21:15.025Z,18.67
2022-11-08T12:24:08.056Z,18.31
2022-11-08T12:26:45.719Z,18.17
2022-11-08T12:29:26.418Z,17.84
2022-11-08T12:32:21.041Z,17.68
2022-11-08T12:35:03.543Z,17.53
2022-11-08T12:37:47.948Z,17.32
2022-11-08T12:40:22.477Z,17.22
2022-11-08T12:43:15.585Z,17.79
2022-11-08T12:46:08.704Z,18.14
2022-11-08T12:49:02.433Z,18.42
2022-11-08T12:51:42.019Z,18.75
2022-11-08T12:54:23.027Z,19.01
2022-11-08T12:56:56.240Z,19.13
2022-11-08T12:59:27.276Z,19.52
2022-11-08T13:01:56.631Z,19.65
2022-11-08T13:04:42.842Z,19.70
2022-11-08T13:07:23.552Z,19.82
2022-11-08T13:09:58.362Z,19.88
2022-11-08T13:12:45.590Z,20.14
2022-11-08T13:15:20.331Z,20.28
2022-11-08T13:18:26.173Z,20.28
2022-11-08T13:20:54.226Z,20.42
2022-11-08T13:23:30.984Z,20.27
2022-11-08T13:26:20.463Z,19.99
2022-11-08T13:28:50.449Z,19.93
2022-11-08T13:31:40.580Z,19.45
2022-11-08T13:34:18.575Z,19.39
2022-11-08T13:37:06.008Z,18.99
2022-11-08T13:39:49.160Z,18.80
2022-11-08T13:42:56.818Z,18.69
2022-11-08T13:45:32.248Z,18.84
2022-11-08T13:48:02.496Z,19.13
2022-11-08T13:50:50.945Z,19.15
2022-11-08T13:53:44.221Z,19.18
2022-11-08T13:56:49.449Z,19.26
2022-11-08T13:59:56.489Z,19.00
2022-11-08T14:02:35.944Z,19.05
2022-11-08T14:05:28.307Z,19.02
2022-11-08T14:08:17.933Z,18.90
2022-11-08T14:11:39.618Z,18.95
2022-11-08T14:14:34.015Z,18.78
2022-11-08T14:17:14.819Z,18.80
2022-11-08T14:19:47.152Z,18.61
2022-11-08T14:22:20.223Z,18.46
2022-11-08T14:24:48.776Z,18.46
2022-11-08T14:27:34.005Z,18.28
2022-11-08T14:30:02.733Z,18.17
2022-11-08T14:32:30.554Z,18.03
2022-11-08T14:35:14.826Z,17.74
2022-11-08T14:37:45.008Z,17.92
2022-11-08T14:40:24.393Z,17.85
2022-11-08T14:42:52.838Z,17.84
2022-11-08T14:45:25.863Z,17.65
2022-11-08T14:47:58.820Z,17.31
2022-11-08T14:50:32.049Z,17.00
2022-11-08T14:53:27.105Z,16.87
2022-11-08T14:56:04.243Z,16.64
2022-11-08T14:58:32.247Z,16.60
2022-11-08T15:01:02.449Z,16.41
2022-11-08T15:03:33.820Z,16.08
2022-11-08T15:06:09.597Z,15.87
2022-11-08T15:08:48.903Z,15.69
2022-11-08T15:11:29.197Z,15.64
2022-11-08T15:14:00.442Z,15.37
2022-11-08T15:16:28.837Z,15.18
2022-11-08T15:18:56.897Z,15.08
2022-11-08T15:21:31.015Z,14.96
2022-11-08T15:24:14.206Z,14.80
2022-11-08T15:27:01.405Z,14.74
2022-11-08T15:29:29.385Z,14.66
2022-11-08T15:32:01.877Z,14.48
2022-11-08T15:34:38.135Z,14.38
2022-11-08T15:37:22.192Z,14.24
2022-11-08T15:39:50.177Z,14.11
2022-11-08T15:42:18.935Z,14.02
2022-11-08T15:45:00.628Z,13.88
2022-11-08T15:47:40.918Z,13.78
2022-11-08T15:50:21.136Z,13.66
2022-11-08T15:52:52.255Z,13.64
2022-11-08T15:55:21.742Z,13.48
2022-11-08T15:57:51.358Z,13.49
2022-11-08T16:00:24.159Z,13.47
2022-11-08T16:02:52.800Z,13.39
2022-11-08T16:05:22.876Z,13.32
2022-11-08T16:07:53.150Z,13.18
2022-11-08T16:10:28.210Z,13.25
2022-11-08T16:12:58.842Z,13.13
2022-11-08T16:15:28.721Z,13.22
2022-11-08T16:17:56.933Z,13.08
2022-11-08T16:20:28.979Z,13.09
2022-11-08T16:22:59.591Z,12.97
2022-11-08T16:25:28.975Z,12.84
2022-11-08T16:27:59.042Z,12.88
2022-11-08T16:30:27.791Z,12.87
2022-11-08T16:32:56.029Z,12.77
2022-11-08T16:35:24.617Z,12.68
2022-11-08T16:37:53.424Z,12.71
2022-11-08T16:40:25.252Z,12.55
2022-11-08T16:42:54.339Z,12.55
2022-11-08T16:45:43.480Z,12.51
2022-11-08T16:48:17.174Z,12.41
2022-11-08T16:50:46.210Z,12.35
2022-11-08T16:53:18.021Z,12.27
2022-11-08T16:55:48.004Z,12.24
2022-11-08T16:58:16.185Z,12.21
2022-11-08T17:00:46.115Z,12.18
2022-11-08T17:03:18.119Z,12.14
2022-11-08T17:05:46.184Z,12.07
2022-11-08T17:08:14.335Z,12.11
2022-11-08T17:10:42.639Z,12.08
2022-11-08T17:13:14.418Z,12.08
2022-11-08T17:15:42.557Z,11.96
2022-11-08T17:18:12.940Z,11.88
2022-11-08T17:20:41.380Z,11.86
2022-11-08T17:23:10.032Z,11.81
2022-11-08T17:25:39.896Z,11.78
2022-11-08T17:28:08.057Z,11.75
2022-11-08T17:30:38.024Z,11.71
2022-11-08T17:33:06.008Z,11.82
2022-11-08T17:35:33.999Z,11.85
2022-11-08T17:38:01.975Z,11.68
2022-11-08T17:40:29.929Z,11.67
2022-11-08T17:42:57.838Z,11.55
2022-11-08T17:45:25.851Z,11.61
2022-11-08T17:47:55.217Z,11.64
2022-11-08T17:50:23.195Z,11.50
2022-11-08T17:52:54.359Z,11.39
2022-11-08T17:55:22.365Z,11.40
2022-11-08T17:57:50.328Z,11.38
2022-11-08T18:00:18.715Z,11.38
2022-11-08T18:02:46.719Z,11.30
2022-11-08T18:05:17.285Z,11.25
2022-11-08T18:07:45.231Z,11.20
2022-11-08T18:10:13.328Z,11.22
2022-11-08T18:12:41.377Z,11.05
2022-11-08T18:15:10.390Z,11.06
2022-11-08T18:17:38.168Z,11.05
2022-11-08T18:20:06.895Z,10.99
2022-11-08T18:22:36.239Z,10.94
2022-11-08T18:25:04.380Z,10.93
2022-11-08T18:27:33.387Z,10.92
2022-11-08T18:30:01.397Z,10.87
2022-11-08T18:32:29.405Z,10.87
2022-11-08T18:34:57.353Z,10.93
2022-11-08T18:37:25.839Z,10.92
2022-11-08T18:39:55.195Z,10.97
2022-11-08T18:42:23.254Z,10.97
2022-11-08T18:44:51.355Z,11.02
2022-11-08T18:47:19.287Z,11.05
2022-11-08T18:49:47.241Z,11.05
2022-11-08T18:52:15.336Z,11.15
2022-11-08T18:54:43.488Z,11.10
2022-11-08T18:57:12.823Z,11.09
2022-11-08T18:59:40.804Z,11.07
2022-11-08T19:02:10.793Z,11.01
2022-11-08T19:04:38.929Z,10.97
2022-11-08T19:07:07.486Z,11.05
2022-11-08T19:09:35.544Z,10.98
2022-11-08T19:12:06.063Z,10.92
2022-11-08T19:14:36.590Z,10.90
2022-11-08T19:17:04.794Z,10.97
2022-11-08T19:19:32.767Z,10.93
2022-11-08T19:22:00.796Z,10.85
2022-11-08T19:24:28.765Z,10.90
2022-11-08T19:26:56.731Z,10.88
2022-11-08T19:29:24.686Z,10.77
2022-11-08T19:31:54.127Z,10.76
2022-11-08T19:34:22.081Z,10.73
2022-11-08T19:36:55.656Z,10.67
2022-11-08T19:39:24.596Z,10.70
2022-11-08T19:41:52.656Z,10.72
2022-11-08T19:44:21.834Z,10.91
2022-11-08T19:46:49.878Z,10.70
2022-11-08T19:49:25.263Z,10.92
2022-11-08T19:51:53.736Z,10.79
2022-11-08T19:54:21.767Z,10.65
2022-11-08T19:57:04.808Z,10.64
2022-11-08T19:59:33.361Z,10.57
2022-11-08T20:02:01.412Z,10.49
2022-11-08T20:04:30.825Z,10.48
2022-11-08T20:06:58.850Z,10.49
2022-11-08T20:09:30.521Z,10.41
2022-11-08T20:11:58.706Z,10.35
2022-11-08T20:14:26.849Z,10.36
2022-11-08T20:16:55.671Z,10.33
2022-11-08T20:19:23.637Z,10.34
2022-11-08T20:21:56.283Z,10.37
2022-11-08T20:24:24.590Z,10.35
2022-11-08T20:26:52.618Z,10.36
2022-11-08T20:29:20.625Z,10.34
2022-11-08T20:31:51.095Z,10.32
2022-11-08T20:34:19.139Z,10.39
2022-11-08T20:36:47.275Z,10.32
2022-11-08T20:39:16.925Z,10.31
2022-11-08T20:41:45.084Z,10.25
2022-11-08T20:44:13.505Z,10.25
2022-11-08T20:46:41.751Z,10.40
2022-11-08T20:49:09.843Z,10.36
2022-11-08T20:51:38.404Z,10.29
2022-11-08T20:54:06.469Z,10.26
2022-11-08T20:56:35.870Z,10.25
2022-11-08T20:59:04.660Z,10.31
2022-11-08T21:01:34.461Z,10.21
2022-11-08T21:04:02.831Z,10.10
2022-11-08T21:06:35.822Z,10.07
2022-11-08T21:09:29.796Z,10.08
2022-11-08T21:11:54.634Z,10.08
2022-11-08T21:14:23.613Z,10.05
2022-11-08T21:17:21.297Z,9.98
2022-11-08T21:19:39.989Z,9.98
2022-11-08T21:22:16.637Z,9.98
2022-11-08T21:24:46.108Z,9.95
2022-11-08T21:27:16.511Z,9.89
2022-11-08T21:29:44.595Z,9.94
2022-11-08T21:32:12.627Z,9.95
2022-11-08T21:34:45.615Z,9.86
2022-11-08T21:37:15.698Z,9.83
2022-11-08T21:39:43.688Z,9.92
2022-11-08T21:42:13.576Z,9.95
2022-11-08T21:44:43.045Z,9.86
2022-11-08T21:47:11.036Z,9.89
2022-11-08T21:49:38.979Z,9.90
2022-11-08T21:52:07.090Z,9.89
2022-11-08T21:54:35.070Z,9.86
2022-11-08T21:57:03.011Z,9.80
2022-11-08T21:59:30.978Z,9.84
2022-11-08T22:02:00.303Z,9.86
2022-11-08T22:04:28.302Z,9.75
2022-11-08T22:06:56.331Z,9.75
2022-11-08T22:09:24.328Z,9.76
2022-11-08T22:11:52.315Z,9.63
2022-11-08T22:14:20.271Z,9.63
2022-11-08T22:16:48.569Z,9.63
2022-11-08T22:19:17.819Z,9.63
2022-11-08T22:21:47.510Z,9.66
2022-11-08T22:24:18.344Z,9.64
2022-11-08T22:26:46.971Z,9.52
2022-11-08T22:29:15.606Z,9.55
2022-11-08T22:31:43.994Z,9.58
2022-11-08T22:34:12.645Z,9.57
2022-11-08T22:36:45.235Z,9.53
2022-11-08T22:39:14.608Z,9.45
2022-11-08T22:41:43.176Z,9.33
2022-11-08T22:44:12.892Z,9.36
2022-11-08T22:46:41.466Z,9.27
2022-11-08T22:49:09.928Z,9.22
2022-11-08T22:51:38.349Z,9.19
2022-11-08T22:54:08.098Z,9.12
2022-11-08T22:56:36.909Z,9.08
2022-11-08T22:59:05.618Z,9.13
2022-11-08T23:01:33.617Z,9.09
2022-11-08T23:04:01.696Z,9.07
2022-11-08T23:06:30.022Z,9.06
2022-11-08T23:08:58.065Z,9.09
2022-11-08T23:11:45.101Z,8.94
2022-11-08T23:14:36.540Z,8.92
2022-11-08T23:17:06.698Z,8.89
2022-11-08T23:19:51.854Z,9.03
2022-11-08T23:22:38.117Z,8.87
2022-11-08T23:25:07.043Z,8.86
2022-11-08T23:27:53.879Z,8.76
2022-11-08T23:30:42.767Z,8.76
2022-11-08T23:33:13.925Z,8.62
2022-11-08T23:36:01.959Z,8.54
2022-11-08T23:38:30.118Z,8.47
2022-11-08T23:41:26.169Z,8.44
2022-11-08T23:44:13.286Z,8.35
2022-11-08T23:46:42.014Z,8.33
2022-11-08T23:49:10.192Z,8.31
2022-11-08T23:51:38.188Z,8.28
2022-11-08T23:54:06.539Z,8.23
2022-11-08T23:56:34.673Z,8.18
2022-11-08T23:59:04.608Z,8.17
